Time;durP1;ratioP1;P1;durP2;ratioP2;P2;SDS_P1;SDS_P2;PMS_P1;PMS_P2;Temp;Humidity;BMP_temperature;BMP_pressure;BME280_temperature;BME280_humidity;BME280_pressure;Samples;Min_cycle;Max_cycle;Signal;HPM_P1;HPM_P2
2023/05/09 00:00:10;;;;;;;1.13;1.03;;;;;;;;;;5073477;28;20218;-85
2023/05/09 00:02:39;;;;;;;1.37;1.27;;;;;;;;;;5073921;28;20204;-84
2023/05/09 00:05:08;;;;;;;12.17;7.83;;;;;;;;;;5073995;28;20198;-85
2023/05/09 00:07:37;;;;;;;12.97;7.90;;;;;;;;;;5073443;28;20215;-84
2023/05/09 00:10:07;;;;;;;18.23;12.20;;;;;;;;;;5073402;28;20249;-85
2023/05/09 00:12:36;;;;;;;21.63;13.90;;;;;;;;;;5073640;28;20237;-85
2023/05/09 00:15:06;;;;;;;31.73;16.70;;;;;;;;;;5073144;28;20195;-84
2023/05/09 00:17:37;;;;;;;28.80;14.73;;;;;;;;;;5073317;28;20243;-84
2023/05/09 00:20:09;;;;;;;25.03;16.03;;;;;;;;;;5073936;28;20288;-94
2023/05/09 00:22:38;;;;;;;29.60;19.80;;;;;;;;;;5075385;28;20231;-93
2023/05/09 00:25:08;;;;;;;33.07;17.37;;;;;;;;;;5075351;28;20202;-94
2023/05/09 00:27:37;;;;;;;38.03;19.07;;;;;;;;;;5073314;28;20264;-84
2023/05/09 00:30:06;;;;;;;37.37;23.57;;;;;;;;;;5073356;28;20202;-84
2023/05/09 00:32:35;;;;;;;26.93;14.70;;;;;;;;;;5072950;28;20203;-84
2023/05/09 00:35:04;;;;;;;15.33;9.30;;;;;;;;;;5073150;28;20195;-84
2023/05/09 00:37:32;;;;;;;22.83;12.83;;;;;;;;;;5072990;28;20230;-85
2023/05/09 00:40:01;;;;;;;32.37;20.33;;;;;;;;;;5072689;28;20268;-84
2023/05/09 00:42:30;;;;;;;33.87;20.37;;;;;;;;;;5072844;28;20317;-93
2023/05/09 00:44:59;;;;;;;28.27;15.87;;;;;;;;;;5074847;28;20241;-93
2023/05/09 00:47:28;;;;;;;32.77;19.10;;;;;;;;;;5074661;28;20234;-93
2023/05/09 00:49:57;;;;;;;34.40;20.43;;;;;;;;;;5074667;28;20266;-94
2023/05/09 00:52:26;;;;;;;35.60;22.97;;;;;;;;;;5075170;28;20195;-93
2023/05/09 00:54:55;;;;;;;40.83;24.37;;;;;;;;;;5074999;28;20202;-93
2023/05/09 00:57:24;;;;;;;26.43;14.90;;;;;;;;;;5075229;28;20221;-93
2023/05/09 00:59:54;;;;;;;41.37;23.37;;;;;;;;;;5074827;28;20218;-93
2023/05/09 01:02:22;;;;;;;22.47;16.30;;;;;;;;;;5074286;28;20222;-94
2023/05/09 01:04:51;;;;;;;41.53;23.87;;;;;;;;;;5073640;28;20219;-93
2023/05/09 01:07:22;;;;;;;48.67;26.50;;;;;;;;;;5073237;28;20263;-93
2023/05/09 01:09:57;;;;;;;41.63;26.83;;;;;;;;;;5074738;28;20213;-94
2023/05/09 01:12:30;;;;;;;44.63;24.97;;;;;;;;;;5074225;28;20195;-94
2023/05/09 01:15:03;;;;;;;31.83;21.60;;;;;;;;;;5074559;28;20201;-94
2023/05/09 01:17:37;;;;;;;48.83;29.47;;;;;;;;;;5054259;28;20247;-94
2023/05/09 01:20:11;;;;;;;52.90;31.40;;;;;;;;;;5053485;28;20228;-94
2023/05/09 01:22:44;;;;;;;37.03;20.93;;;;;;;;;;5054832;28;20249;-93
2023/05/09 01:25:34;;;;;;;47.03;26.87;;;;;;;;;;5054404;28;20205;-93
2023/05/09 01:28:08;;;;;;;48.67;28.47;;;;;;;;;;5054280;28;20226;-94
2023/05/09 01:30:38;;;;;;;49.03;26.97;;;;;;;;;;5054536;28;20261;-93
2023/05/09 01:33:08;;;;;;;45.53;21.33;;;;;;;;;;5053507;28;20215;-94
2023/05/09 01:35:38;;;;;;;55.13;31.40;;;;;;;;;;5053857;28;20205;-94
2023/05/09 01:38:19;;;;;;;61.63;34.13;;;;;;;;;;5054350;28;20200;-94
2023/05/09 01:40:49;;;;;;;56.27;32.43;;;;;;;;;;5052896;28;20220;-84
2023/05/09 01:43:18;;;;;;;51.27;27.17;;;;;;;;;;5051523;28;20206;-85
2023/05/09 01:45:49;;;;;;;49.43;27.30;;;;;;;;;;5051963;28;20267;-84
2023/05/09 01:48:17;;;;;;;58.67;37.43;;;;;;;;;;5051811;28;20207;-84
2023/05/09 01:50:46;;;;;;;54.50;30.77;;;;;;;;;;5051546;28;20205;-84
2023/05/09 01:53:15;;;;;;;53.03;31.73;;;;;;;;;;5051874;28;20201;-84
2023/05/09 01:55:44;;;;;;;67.27;37.20;;;;;;;;;;5051003;28;20208;-84
2023/05/09 01:58:14;;;;;;;62.93;37.00;;;;;;;;;;5051520;28;20250;-84
2023/05/09 02:00:42;;;;;;;65.47;37.17;;;;;;;;;;5051543;28;20274;-84
2023/05/09 02:03:12;;;;;;;46.40;28.00;;;;;;;;;;5051734;28;20207;-84
2023/05/09 02:05:42;;;;;;;65.80;34.37;;;;;;;;;;5051195;28;20200;-84
2023/05/09 02:08:11;;;;;;;63.87;37.63;;;;;;;;;;5052057;28;20318;-84
2023/05/09 02:10:40;;;;;;;63.27;36.67;;;;;;;;;;5051569;28;20203;-85
2023/05/09 02:13:08;;;;;;;72.73;40.33;;;;;;;;;;5051498;28;20196;-84
2023/05/09 02:15:37;;;;;;;56.27;32.30;;;;;;;;;;5056290;28;20228;-84
2023/05/09 02:18:06;;;;;;;60.30;35.07;;;;;;;;;;5071600;28;20203;-85
2023/05/09 02:20:36;;;;;;;57.63;27.97;;;;;;;;;;5070896;28;20223;-84
2023/05/09 02:23:05;;;;;;;57.97;31.00;;;;;;;;;;5071458;28;20227;-84
2023/05/09 02:25:34;;;;;;;65.27;35.43;;;;;;;;;;5071338;28;20215;-84
2023/05/09 02:28:03;;;;;;;60.17;31.47;;;;;;;;;;5071428;28;20223;-84
2023/05/09 02:30:34;;;;;;;59.77;32.67;;;;;;;;;;5071179;28;20323;-85
2023/05/09 02:33:04;;;;;;;68.23;37.73;;;;;;;;;;5074657;28;20211;-94
2023/05/09 02:35:32;;;;;;;45.40;26.10;;;;;;;;;;5077945;28;20240;-95
2023/05/09 02:38:02;;;;;;;61.83;35.63;;;;;;;;;;5077669;28;20198;-94
2023/05/09 02:40:31;;;;;;;66.43;36.93;;;;;;;;;;5076824;28;20230;-95
2023/05/09 02:43:00;;;;;;;23.80;12.87;;;;;;;;;;5077395;28;20200;-95
2023/05/09 02:45:28;;;;;;;42.53;26.50;;;;;;;;;;5075865;28;20198;-85
2023/05/09 02:47:56;;;;;;;59.13;31.60;;;;;;;;;;5071366;28;20206;-84
2023/05/09 02:50:25;;;;;;;26.37;17.00;;;;;;;;;;5071182;28;20229;-84
2023/05/09 02:52:54;;;;;;;51.23;29.50;;;;;;;;;;5071001;28;20198;-84
2023/05/09 02:55:23;;;;;;;49.93;30.40;;;;;;;;;;5071134;28;20234;-84
2023/05/09 02:57:52;;;;;;;51.07;25.73;;;;;;;;;;5074933;28;20186;-95
2023/05/09 03:00:39;;;;;;;56.33;37.20;;;;;;;;;;5081331;28;20219;-95
2023/05/09 03:03:08;;;;;;;48.97;27.20;;;;;;;;;;5080619;28;20199;-95
2023/05/09 03:05:36;;;;;;;45.67;28.80;;;;;;;;;;5080987;28;20199;-95
2023/05/09 03:08:05;;;;;;;45.63;27.90;;;;;;;;;;5083623;28;20194;-94
2023/05/09 03:10:35;;;;;;;50.77;29.13;;;;;;;;;;5084208;28;20314;-95
2023/05/09 03:13:04;;;;;;;45.43;30.10;;;;;;;;;;5084519;28;20242;-95
2023/05/09 03:15:32;;;;;;;54.63;31.13;;;;;;;;;;5084581;28;20243;-95
2023/05/09 03:18:01;;;;;;;50.30;28.60;;;;;;;;;;5084810;28;20199;-95
2023/05/09 03:20:30;;;;;;;42.40;22.07;;;;;;;;;;5084552;28;20238;-95
2023/05/09 03:22:59;;;;;;;31.57;18.77;;;;;;;;;;5084284;28;20208;-95
2023/05/09 03:25:27;;;;;;;50.70;28.23;;;;;;;;;;5084823;28;20204;-95
2023/05/09 03:27:57;;;;;;;42.57;25.17;;;;;;;;;;5086773;28;20310;-95
2023/05/09 03:30:26;;;;;;;55.77;28.90;;;;;;;;;;5085330;28;20268;-95
2023/05/09 03:32:55;;;;;;;45.97;28.30;;;;;;;;;;5084814;28;20196;-95
2023/05/09 03:35:23;;;;;;;42.33;24.50;;;;;;;;;;5085625;28;20263;-95
2023/05/09 03:37:52;;;;;;;29.93;16.77;;;;;;;;;;5085795;28;20267;-95
2023/05/09 03:40:21;;;;;;;41.80;24.73;;;;;;;;;;5086884;28;20229;-95
2023/05/09 03:42:49;;;;;;;47.97;29.07;;;;;;;;;;5085730;28;20217;-95
2023/05/09 03:45:20;;;;;;;45.53;27.07;;;;;;;;;;5085575;28;20245;-94
2023/05/09 03:47:48;;;;;;;49.27;30.00;;;;;;;;;;5085710;28;20196;-95
2023/05/09 03:50:17;;;;;;;40.70;23.87;;;;;;;;;;5081866;28;20207;-84
2023/05/09 03:52:46;;;;;;;29.73;17.33;;;;;;;;;;5073955;28;20252;-85
2023/05/09 03:55:14;;;;;;;19.67;12.90;;;;;;;;;;5073858;28;20235;-85
2023/05/09 03:57:43;;;;;;;35.03;21.73;;;;;;;;;;5074080;28;20237;-84
2023/05/09 04:00:12;;;;;;;41.70;24.97;;;;;;;;;;5074009;28;20207;-84
2023/05/09 04:02:42;;;;;;;36.40;26.67;;;;;;;;;;5073392;28;20223;-84
2023/05/09 04:05:10;;;;;;;42.47;23.83;;;;;;;;;;5074404;28;20194;-84
2023/05/09 04:07:39;;;;;;;41.60;29.13;;;;;;;;;;5073549;28;20218;-84
2023/05/09 04:10:08;;;;;;;44.90;28.23;;;;;;;;;;5073295;28;20195;-84
2023/05/09 04:12:37;;;;;;;37.57;25.50;;;;;;;;;;5073433;28;20251;-84
2023/05/09 04:15:06;;;;;;;36.10;22.47;;;;;;;;;;5073923;28;20203;-84
2023/05/09 04:17:34;;;;;;;36.97;20.97;;;;;;;;;;5072257;28;20264;-84
2023/05/09 04:20:06;;;;;;;38.57;24.07;;;;;;;;;;5073373;28;20207;-84
2023/05/09 04:22:35;;;;;;;20.30;14.60;;;;;;;;;;5073648;28;20222;-84
2023/05/09 04:25:04;;;;;;;32.73;19.87;;;;;;;;;;5073738;28;20206;-84
2023/05/09 04:27:32;;;;;;;10.47;9.20;;;;;;;;;;5073097;28;20245;-84
2023/05/09 04:30:00;;;;;;;29.93;18.77;;;;;;;;;;5073363;28;20298;-84
2023/05/09 04:32:29;;;;;;;34.10;21.07;;;;;;;;;;5073392;28;20282;-84
2023/05/09 04:34:57;;;;;;;27.50;18.57;;;;;;;;;;5073207;28;20258;-84
2023/05/09 04:37:27;;;;;;;30.63;23.13;;;;;;;;;;5073014;28;20259;-83
2023/05/09 04:39:56;;;;;;;31.00;22.13;;;;;;;;;;5073175;28;20227;-84
2023/05/09 04:42:24;;;;;;;34.30;25.63;;;;;;;;;;5093168;28;20245;-96
2023/05/09 04:45:02;;;;;;;28.60;18.27;;;;;;;;;;5097801;28;20245;-96
2023/05/09 04:47:30;;;;;;;35.30;24.40;;;;;;;;;;5099663;28;20183;-95
2023/05/09 04:55:40;;;;;;;31.90;18.70;;;;;;;;;;6046495;22;21262;-93
2023/05/09 04:58:09;;;;;;;24.20;14.57;;;;;;;;;;5036014;28;20252;-95
2023/05/09 05:00:42;;;;;;;28.13;20.03;;;;;;;;;;5038477;28;20190;-96
2023/05/09 05:03:16;;;;;;;31.93;21.10;;;;;;;;;;5037303;28;20210;-96
2023/05/09 05:05:46;;;;;;;27.43;20.30;;;;;;;;;;5037419;28;20189;-92
2023/05/09 05:08:17;;;;;;;29.30;22.20;;;;;;;;;;5036967;28;20175;-96
2023/05/09 05:10:48;;;;;;;33.30;23.90;;;;;;;;;;5037155;28;20236;-96
2023/05/09 05:13:17;;;;;;;34.47;24.20;;;;;;;;;;5017846;28;20200;-83
2023/05/09 05:15:45;;;;;;;32.87;22.20;;;;;;;;;;5012899;28;20196;-83
2023/05/09 05:18:14;;;;;;;25.40;18.67;;;;;;;;;;5012777;28;20280;-83
2023/05/09 05:20:42;;;;;;;30.60;21.03;;;;;;;;;;5012540;28;20256;-83
2023/05/09 05:23:11;;;;;;;22.90;15.87;;;;;;;;;;5012547;28;20252;-82
2023/05/09 05:25:39;;;;;;;14.87;8.03;;;;;;;;;;5012289;28;20256;-82
2023/05/09 05:28:09;;;;;;;27.07;19.53;;;;;;;;;;5012850;28;20223;-83
2023/05/09 05:30:38;;;;;;;28.93;19.77;;;;;;;;;;5012497;28;20201;-82
2023/05/09 05:33:06;;;;;;;25.23;17.67;;;;;;;;;;5012704;28;20230;-82
2023/05/09 05:35:35;;;;;;;27.00;21.40;;;;;;;;;;5012866;28;20201;-82
2023/05/09 05:38:04;;;;;;;33.70;21.17;;;;;;;;;;5012140;28;20233;-83
2023/05/09 05:40:32;;;;;;;30.57;18.97;;;;;;;;;;5012456;28;20255;-82
2023/05/09 05:43:00;;;;;;;28.87;19.30;;;;;;;;;;5012074;28;20382;-82
2023/05/09 05:45:30;;;;;;;21.90;13.17;;;;;;;;;;5011931;28;20309;-82
2023/05/09 05:48:01;;;;;;;19.47;14.40;;;;;;;;;;5012582;28;20230;-82
2023/05/09 05:50:29;;;;;;;22.20;15.07;;;;;;;;;;5012006;28;20205;-82
2023/05/09 05:52:58;;;;;;;23.90;15.80;;;;;;;;;;5011869;28;20241;-82
2023/05/09 05:55:27;;;;;;;21.47;17.07;;;;;;;;;;5017604;28;20208;-92
2023/05/09 05:58:02;;;;;;;24.60;19.77;;;;;;;;;;5018370;28;20259;-93
2023/05/09 06:00:34;;;;;;;31.27;25.27;;;;;;;;;;5016664;28;20223;-93
2023/05/09 06:03:12;;;;;;;32.70;26.30;;;;;;;;;;5017394;28;20226;-88
2023/05/09 06:08:13;;;;;;;22.40;17.73;;;;;;;;;;5013258;28;20212;-91
2023/05/09 06:10:41;;;;;;;30.20;19.80;;;;;;;;;;5014507;28;20277;-91
2023/05/09 06:13:10;;;;;;;29.07;17.40;;;;;;;;;;5014008;28;20228;-91
2023/05/09 06:15:40;;;;;;;28.67;20.37;;;;;;;;;;5014336;28;20200;-91
2023/05/09 06:18:08;;;;;;;25.20;16.73;;;;;;;;;;5013579;28;20228;-92
2023/05/09 06:20:37;;;;;;;32.53;21.70;;;;;;;;;;5014039;28;20212;-91
2023/05/09 06:23:05;;;;;;;26.87;19.33;;;;;;;;;;5013443;28;20275;-91
2023/05/09 06:25:34;;;;;;;30.00;19.83;;;;;;;;;;5012395;28;20203;-92
2023/05/09 06:28:02;;;;;;;16.47;10.10;;;;;;;;;;5012719;28;20276;-92
2023/05/09 06:30:31;;;;;;;23.57;16.67;;;;;;;;;;5012949;28;20296;-91
2023/05/09 06:33:01;;;;;;;25.83;19.63;;;;;;;;;;5012873;28;20217;-82
2023/05/09 06:35:29;;;;;;;28.23;20.07;;;;;;;;;;5011495;28;20212;-82
2023/05/09 06:37:58;;;;;;;29.53;19.67;;;;;;;;;;5011356;28;20289;-82
2023/05/09 06:40:26;;;;;;;29.50;20.43;;;;;;;;;;5011816;28;20239;-81
2023/05/09 06:42:55;;;;;;;23.40;18.00;;;;;;;;;;5015795;28;20228;-83
2023/05/09 06:45:23;;;;;;;27.00;17.50;;;;;;;;;;5015130;28;20198;-83
2023/05/09 06:47:54;;;;;;;28.13;17.90;;;;;;;;;;5015155;28;20211;-82
2023/05/09 06:50:24;;;;;;;21.33;15.37;;;;;;;;;;5015588;28;20203;-90
2023/05/09 06:52:53;;;;;;;28.27;17.17;;;;;;;;;;4999845;28;20203;-90
2023/05/09 06:55:22;;;;;;;26.17;17.87;;;;;;;;;;5017070;28;20386;-90
2023/05/09 06:57:50;;;;;;;29.53;22.20;;;;;;;;;;5017770;28;20299;-91
2023/05/09 07:00:20;;;;;;;31.60;22.07;;;;;;;;;;4999611;28;20271;-91
2023/05/09 07:02:49;;;;;;;26.37;21.97;;;;;;;;;;5017423;28;20219;-90
2023/05/09 07:05:17;;;;;;;33.73;22.83;;;;;;;;;;5017300;28;20262;-90
2023/05/09 07:07:48;;;;;;;29.20;21.10;;;;;;;;;;5014282;28;20235;-90
2023/05/09 07:10:17;;;;;;;38.17;27.90;;;;;;;;;;5015842;28;20190;-89
2023/05/09 07:12:45;;;;;;;36.67;27.13;;;;;;;;;;5016054;28;20206;-83
2023/05/09 07:15:14;;;;;;;32.50;25.13;;;;;;;;;;5015043;28;20252;-83
2023/05/09 07:17:56;;;;;;;31.40;16.07;;;;;;;;;;5015323;28;20204;-83
2023/05/09 07:20:24;;;;;;;27.80;21.33;;;;;;;;;;5014588;28;20201;-83
2023/05/09 07:22:57;;;;;;;22.20;14.77;;;;;;;;;;5014499;28;20311;-82
2023/05/09 07:25:25;;;;;;;25.30;19.60;;;;;;;;;;5014543;28;20197;-82
2023/05/09 07:27:54;;;;;;;17.60;15.50;;;;;;;;;;5014259;28;20222;-82
2023/05/09 07:30:23;;;;;;;21.33;17.00;;;;;;;;;;5014822;28;20237;-83
2023/05/09 07:32:51;;;;;;;20.07;14.67;;;;;;;;;;5014233;28;20228;-82
2023/05/09 07:35:21;;;;;;;18.70;16.53;;;;;;;;;;5014385;28;20208;-82
2023/05/09 07:37:49;;;;;;;16.27;10.87;;;;;;;;;;5014974;28;20205;-89
2023/05/09 07:40:19;;;;;;;20.90;18.27;;;;;;;;;;5015591;28;20304;-89
2023/05/09 07:42:48;;;;;;;16.13;12.23;;;;;;;;;;5015272;28;20290;-90
2023/05/09 07:45:17;;;;;;;20.60;14.60;;;;;;;;;;5016013;28;20208;-89
2023/05/09 07:47:50;;;;;;;19.60;13.67;;;;;;;;;;5015435;28;20201;-89
2023/05/09 07:50:18;;;;;;;17.73;13.73;;;;;;;;;;5015084;28;20211;-90
2023/05/09 07:52:47;;;;;;;15.67;10.83;;;;;;;;;;5013714;28;20232;-89
2023/05/09 07:55:15;;;;;;;18.70;15.33;;;;;;;;;;5015700;28;20198;-89
2023/05/09 07:57:46;;;;;;;19.60;16.03;;;;;;;;;;5015269;28;20262;-89
2023/05/09 08:00:15;;;;;;;20.43;16.67;;;;;;;;;;5015368;28;20243;-88
2023/05/09 08:02:44;;;;;;;16.27;14.23;;;;;;;;;;5015096;28;20225;-88
2023/05/09 08:05:13;;;;;;;14.77;9.93;;;;;;;;;;5015307;28;20206;-88
2023/05/09 08:07:41;;;;;;;21.60;15.73;;;;;;;;;;5014887;28;20244;-89
2023/05/09 08:10:10;;;;;;;15.03;12.73;;;;;;;;;;5015254;28;20302;-88
2023/05/09 08:12:39;;;;;;;13.33;11.00;;;;;;;;;;5014867;28;20210;-88
2023/05/09 08:15:09;;;;;;;13.73;11.20;;;;;;;;;;5015046;28;20200;-89
2023/05/09 08:17:38;;;;;;;12.23;10.90;;;;;;;;;;5014903;28;20255;-88
2023/05/09 08:20:07;;;;;;;15.40;13.90;;;;;;;;;;5014876;28;20291;-88
2023/05/09 08:22:36;;;;;;;13.13;9.77;;;;;;;;;;5014916;28;20208;-89
2023/05/09 08:25:05;;;;;;;11.63;9.77;;;;;;;;;;5015091;28;20228;-88
2023/05/09 08:27:33;;;;;;;12.70;7.30;;;;;;;;;;5014425;28;20235;-87
2023/05/09 08:30:02;;;;;;;12.03;7.97;;;;;;;;;;5014174;28;20205;-89
2023/05/09 08:32:32;;;;;;;11.63;9.90;;;;;;;;;;5013715;28;20245;-88
2023/05/09 08:35:00;;;;;;;11.67;10.43;;;;;;;;;;5014609;28;20233;-88
2023/05/09 08:37:29;;;;;;;12.57;10.60;;;;;;;;;;5014292;28;20201;-86
2023/05/09 08:39:57;;;;;;;13.27;10.63;;;;;;;;;;5014445;28;20213;-89
2023/05/09 08:42:26;;;;;;;5.20;4.03;;;;;;;;;;5014153;28;20206;-90
2023/05/09 08:44:55;;;;;;;10.07;8.40;;;;;;;;;;5013803;28;20253;-88
2023/05/09 08:47:24;;;;;;;12.30;10.03;;;;;;;;;;5014240;28;20197;-88
2023/05/09 08:49:54;;;;;;;13.37;8.80;;;;;;;;;;5014545;28;20210;-88
2023/05/09 08:52:22;;;;;;;10.70;9.23;;;;;;;;;;5013938;28;20202;-89
2023/05/09 08:54:52;;;;;;;11.70;8.73;;;;;;;;;;5014046;28;20251;-89
2023/05/09 08:57:21;;;;;;;10.33;9.23;;;;;;;;;;5014417;28;20222;-89
2023/05/09 08:59:50;;;;;;;12.43;9.87;;;;;;;;;;5013733;28;20249;-88
2023/05/09 09:02:19;;;;;;;10.07;7.20;;;;;;;;;;5013926;28;20206;-88
2023/05/09 09:04:47;;;;;;;12.67;10.10;;;;;;;;;;5013927;28;20229;-88
2023/05/09 09:07:18;;;;;;;13.07;10.87;;;;;;;;;;5013845;28;20272;-88
2023/05/09 09:09:47;;;;;;;12.90;10.60;;;;;;;;;;5014142;28;20254;-88
2023/05/09 09:12:16;;;;;;;12.53;10.33;;;;;;;;;;5013606;28;20205;-88
2023/05/09 09:14:48;;;;;;;10.90;9.13;;;;;;;;;;5013446;28;20224;-88
2023/05/09 09:17:19;;;;;;;16.63;11.83;;;;;;;;;;5012992;28;20271;-88
2023/05/09 09:19:49;;;;;;;15.43;10.00;;;;;;;;;;5013018;28;20201;-87
2023/05/09 09:22:20;;;;;;;18.07;13.00;;;;;;;;;;5013111;28;20214;-87
2023/05/09 09:24:48;;;;;;;15.33;13.03;;;;;;;;;;5012671;28;20226;-87
2023/05/09 09:27:18;;;;;;;11.40;8.60;;;;;;;;;;5013017;28;20217;-87
2023/05/09 09:29:46;;;;;;;19.73;15.47;;;;;;;;;;5013212;28;20256;-87
2023/05/09 09:32:17;;;;;;;16.87;13.90;;;;;;;;;;5012305;28;20203;-87
2023/05/09 09:34:49;;;;;;;12.20;10.60;;;;;;;;;;5012548;28;20277;-83
2023/05/09 09:37:23;;;;;;;16.67;12.27;;;;;;;;;;5012596;28;20200;-82
2023/05/09 09:39:55;;;;;;;17.37;15.17;;;;;;;;;;5012505;28;20212;-83
2023/05/09 09:42:23;;;;;;;15.10;13.47;;;;;;;;;;5013153;28;20209;-83
2023/05/09 09:44:57;;;;;;;18.57;16.67;;;;;;;;;;5012244;28;20276;-83
2023/05/09 09:47:31;;;;;;;20.07;17.97;;;;;;;;;;5011954;28;20298;-83
2023/05/09 09:50:09;;;;;;;20.50;18.40;;;;;;;;;;5012537;28;20276;-83
2023/05/09 09:52:42;;;;;;;18.37;16.37;;;;;;;;;;5012173;28;20366;-83
2023/05/09 09:55:12;;;;;;;20.63;18.53;;;;;;;;;;5012008;28;20208;-83
2023/05/09 09:57:43;;;;;;;22.07;19.77;;;;;;;;;;5012617;28;20223;-83
2023/05/09 10:00:13;;;;;;;14.20;11.07;;;;;;;;;;5012132;28;20212;-83
2023/05/09 10:02:51;;;;;;;19.00;17.50;;;;;;;;;;5011758;28;20305;-83
2023/05/09 10:05:23;;;;;;;15.73;14.10;;;;;;;;;;5012027;28;20268;-86
2023/05/09 10:07:54;;;;;;;14.57;12.53;;;;;;;;;;5011831;28;20232;-86
2023/05/09 10:10:23;;;;;;;13.60;12.20;;;;;;;;;;5012304;28;20207;-85
2023/05/09 10:12:54;;;;;;;14.83;13.47;;;;;;;;;;5011512;28;20193;-86
2023/05/09 10:15:25;;;;;;;16.50;14.80;;;;;;;;;;5011533;28;20268;-85
2023/05/09 10:17:55;;;;;;;15.63;14.13;;;;;;;;;;5011660;28;20218;-85
2023/05/09 10:20:26;;;;;;;15.23;13.63;;;;;;;;;;5011383;28;20198;-85
2023/05/09 10:22:57;;;;;;;16.57;14.97;;;;;;;;;;5011751;28;20230;-85
2023/05/09 10:25:28;;;;;;;15.93;13.90;;;;;;;;;;5011497;28;20227;-84
2023/05/09 10:28:00;;;;;;;16.70;15.10;;;;;;;;;;5011368;28;20232;-85
2023/05/09 10:30:32;;;;;;;15.97;14.37;;;;;;;;;;5011770;28;20207;-85
2023/05/09 10:33:03;;;;;;;15.73;13.53;;;;;;;;;;5011858;28;20207;-85
2023/05/09 10:35:37;;;;;;;14.00;11.03;;;;;;;;;;5011715;28;20216;-84
2023/05/09 10:38:10;;;;;;;14.97;13.37;;;;;;;;;;5012053;28;20228;-85
2023/05/09 10:40:40;;;;;;;15.87;14.37;;;;;;;;;;5011382;28;20202;-83
2023/05/09 10:43:09;;;;;;;11.80;10.70;;;;;;;;;;5011321;28;20264;-83
2023/05/09 10:45:37;;;;;;;16.87;15.23;;;;;;;;;;5011260;28;20232;-82
2023/05/09 10:48:07;;;;;;;12.70;11.20;;;;;;;;;;5011442;28;20215;-82
2023/05/09 10:50:36;;;;;;;12.73;11.47;;;;;;;;;;5011641;28;20206;-83
2023/05/09 10:53:07;;;;;;;16.00;14.37;;;;;;;;;;5011605;28;20208;-83
2023/05/09 10:55:40;;;;;;;19.30;15.43;;;;;;;;;;5011602;28;20223;-83
2023/05/09 10:58:22;;;;;;;12.37;10.80;;;;;;;;;;5011052;28;20301;-84
2023/05/09 11:00:52;;;;;;;14.67;13.10;;;;;;;;;;5011364;28;20204;-83
2023/05/09 11:03:23;;;;;;;15.40;13.90;;;;;;;;;;5011585;28;20227;-83
2023/05/09 11:05:54;;;;;;;10.40;8.27;;;;;;;;;;5011180;28;20232;-83
2023/05/09 11:08:24;;;;;;;13.90;12.50;;;;;;;;;;5011539;28;20226;-83
2023/05/09 11:10:54;;;;;;;12.20;8.13;;;;;;;;;;5011165;28;20269;-83
2023/05/09 11:13:23;;;;;;;13.67;11.70;;;;;;;;;;5011083;28;20297;-83
2023/05/09 11:16:05;;;;;;;9.20;8.00;;;;;;;;;;5011142;28;20228;-86
2023/05/09 11:18:34;;;;;;;8.57;6.90;;;;;;;;;;5011097;28;20195;-85
2023/05/09 11:21:08;;;;;;;13.63;12.00;;;;;;;;;;5011017;28;20202;-86
2023/05/09 11:23:38;;;;;;;12.53;11.23;;;;;;;;;;5011173;28;20234;-86
2023/05/09 11:26:09;;;;;;;14.97;13.37;;;;;;;;;;5011746;28;20230;-86
2023/05/09 11:28:38;;;;;;;14.93;13.53;;;;;;;;;;5014757;28;20249;-86
2023/05/09 11:31:10;;;;;;;12.40;11.30;;;;;;;;;;5014827;28;20202;-85
2023/05/09 11:33:38;;;;;;;13.30;11.83;;;;;;;;;;5014660;28;20209;-85
2023/05/09 11:36:28;;;;;;;13.77;12.30;;;;;;;;;;5014993;28;20205;-86
2023/05/09 11:39:03;;;;;;;14.00;12.73;;;;;;;;;;5006658;28;20251;-86
2023/05/09 11:41:38;;;;;;;15.23;13.73;;;;;;;;;;5014668;28;20292;-86
2023/05/09 11:44:12;;;;;;;14.97;13.43;;;;;;;;;;5015046;28;20204;-86
2023/05/09 11:46:41;;;;;;;11.13;10.00;;;;;;;;;;5014448;28;20276;-86
2023/05/09 11:49:10;;;;;;;13.00;11.77;;;;;;;;;;5014884;28;20269;-86
2023/05/09 11:51:40;;;;;;;14.57;13.03;;;;;;;;;;5014581;28;20205;-86
2023/05/09 11:54:10;;;;;;;13.60;12.30;;;;;;;;;;5014357;28;20203;-85
2023/05/09 11:56:41;;;;;;;14.47;11.53;;;;;;;;;;5014503;28;20210;-85
2023/05/09 11:59:12;;;;;;;15.43;13.93;;;;;;;;;;5013982;28;20213;-84
2023/05/09 12:01:40;;;;;;;16.97;15.53;;;;;;;;;;5014174;28;20203;-85
2023/05/09 12:04:10;;;;;;;8.53;7.47;;;;;;;;;;5014814;28;20209;-84
2023/05/09 12:06:39;;;;;;;11.90;10.97;;;;;;;;;;5011476;28;20242;-84
2023/05/09 12:09:10;;;;;;;11.80;10.67;;;;;;;;;;5013577;28;20221;-83
2023/05/09 12:11:40;;;;;;;10.60;9.03;;;;;;;;;;5014393;28;20234;-83
2023/05/09 12:14:08;;;;;;;11.07;10.07;;;;;;;;;;5014040;28;20253;-83
2023/05/09 12:16:45;;;;;;;9.63;8.63;;;;;;;;;;5013847;28;20202;-83
2023/05/09 12:19:14;;;;;;;4.20;3.73;;;;;;;;;;5013776;28;20256;-83
2023/05/09 12:21:45;;;;;;;10.87;9.80;;;;;;;;;;5014334;28;20265;-83
2023/05/09 12:24:13;;;;;;;13.00;11.77;;;;;;;;;;5013353;28;20221;-83
2023/05/09 12:26:43;;;;;;;12.87;11.67;;;;;;;;;;5013487;28;20222;-83
2023/05/09 12:29:12;;;;;;;12.33;11.23;;;;;;;;;;5013752;28;20198;-83
2023/05/09 12:31:44;;;;;;;8.30;7.50;;;;;;;;;;5013727;28;20242;-83
2023/05/09 12:34:13;;;;;;;10.07;9.07;;;;;;;;;;5013646;28;20277;-83
2023/05/09 12:36:49;;;;;;;8.77;7.77;;;;;;;;;;5013458;28;20229;-83
2023/05/09 12:39:20;;;;;;;12.47;11.37;;;;;;;;;;5013017;28;20292;-83
2023/05/09 12:41:50;;;;;;;8.00;7.20;;;;;;;;;;5013911;28;20237;-83
2023/05/09 12:44:29;;;;;;;9.07;8.27;;;;;;;;;;5013538;28;20210;-83
2023/05/09 12:46:58;;;;;;;11.07;10.03;;;;;;;;;;5013688;28;20223;-83
2023/05/09 12:49:26;;;;;;;10.83;9.83;;;;;;;;;;5013426;28;20210;-83
2023/05/09 12:51:55;;;;;;;9.97;9.03;;;;;;;;;;5013279;28;20211;-83
2023/05/09 12:54:24;;;;;;;14.53;9.43;;;;;;;;;;5013645;28;20237;-83
2023/05/09 12:56:55;;;;;;;9.53;8.63;;;;;;;;;;5012968;28;20252;-82
2023/05/09 12:59:24;;;;;;;11.10;10.13;;;;;;;;;;5013449;28;20207;-81
2023/05/09 13:01:55;;;;;;;9.97;8.97;;;;;;;;;;5012924;28;20253;-83
2023/05/09 13:04:24;;;;;;;9.10;8.20;;;;;;;;;;5012750;28;20277;-83
2023/05/09 13:06:54;;;;;;;2.07;1.93;;;;;;;;;;5010719;28;20233;-84
2023/05/09 13:09:23;;;;;;;8.03;7.23;;;;;;;;;;5013443;28;20214;-83
2023/05/09 13:11:51;;;;;;;9.10;8.30;;;;;;;;;;5012445;28;20207;-83
2023/05/09 13:14:23;;;;;;;7.87;7.23;;;;;;;;;;5013190;28;20205;-83
2023/05/09 13:16:54;;;;;;;7.57;6.43;;;;;;;;;;5012694;28;20208;-83
2023/05/09 13:19:22;;;;;;;7.10;6.50;;;;;;;;;;5012853;28;20205;-83
2023/05/09 13:21:53;;;;;;;5.33;4.83;;;;;;;;;;5012181;28;20222;-83
2023/05/09 13:24:22;;;;;;;7.77;7.17;;;;;;;;;;5012671;28;20256;-83
2023/05/09 13:26:51;;;;;;;6.77;6.20;;;;;;;;;;5011709;28;20257;-84
2023/05/09 13:29:19;;;;;;;9.67;7.07;;;;;;;;;;5012221;28;20191;-83
2023/05/09 13:31:49;;;;;;;8.33;7.63;;;;;;;;;;5012388;28;20217;-83
2023/05/09 13:34:17;;;;;;;7.40;6.80;;;;;;;;;;5012341;28;20239;-84
2023/05/09 13:36:46;;;;;;;8.40;7.70;;;;;;;;;;5011256;28;20199;-83
2023/05/09 13:39:15;;;;;;;8.47;7.67;;;;;;;;;;4999519;28;20225;-83
2023/05/09 13:41:43;;;;;;;6.40;5.73;;;;;;;;;;5009809;28;20225;-84
2023/05/09 13:44:12;;;;;;;4.00;3.60;;;;;;;;;;4997812;28;20213;-84
2023/05/09 13:46:41;;;;;;;9.20;8.40;;;;;;;;;;5011564;28;20313;-83
2023/05/09 13:49:12;;;;;;;7.43;6.83;;;;;;;;;;5011447;28;20270;-84
2023/05/09 13:51:41;;;;;;;7.40;6.40;;;;;;;;;;5011278;28;20272;-84
2023/05/09 13:54:11;;;;;;;7.83;5.37;;;;;;;;;;5011993;28;20294;-85
2023/05/09 13:56:40;;;;;;;5.43;4.93;;;;;;;;;;5011451;28;20206;-83
2023/05/09 13:59:09;;;;;;;7.10;6.47;;;;;;;;;;5011037;28;20214;-84
2023/05/09 14:01:38;;;;;;;7.13;6.40;;;;;;;;;;5010935;28;20213;-85
2023/05/09 14:04:06;;;;;;;5.20;4.70;;;;;;;;;;5011632;28;20206;-84
2023/05/09 14:06:36;;;;;;;8.20;7.30;;;;;;;;;;5010503;28;20223;-84
2023/05/09 14:09:06;;;;;;;7.20;6.50;;;;;;;;;;5011126;28;20206;-85
2023/05/09 14:11:34;;;;;;;7.23;6.43;;;;;;;;;;5009555;28;20301;-85
2023/05/09 14:14:03;;;;;;;6.90;6.30;;;;;;;;;;5007399;28;20260;-85
2023/05/09 14:16:31;;;;;;;7.00;6.40;;;;;;;;;;5008569;28;20249;-85
2023/05/09 14:19:00;;;;;;;8.33;7.63;;;;;;;;;;5011043;28;20211;-83
2023/05/09 14:21:28;;;;;;;6.77;6.17;;;;;;;;;;5011438;28;20222;-88
2023/05/09 14:23:58;;;;;;;6.90;6.30;;;;;;;;;;5011077;28;20265;-85
2023/05/09 14:26:27;;;;;;;5.93;5.27;;;;;;;;;;5010687;28;20244;-83
2023/05/09 14:28:56;;;;;;;6.73;6.23;;;;;;;;;;5010692;28;20232;-84
2023/05/09 14:31:25;;;;;;;5.40;4.90;;;;;;;;;;5011105;28;20203;-82
2023/05/09 14:33:54;;;;;;;6.13;5.63;;;;;;;;;;5011544;28;20229;-83
2023/05/09 14:36:22;;;;;;;6.63;5.67;;;;;;;;;;5012164;28;20298;-82
2023/05/09 14:38:51;;;;;;;6.03;5.20;;;;;;;;;;5011361;28;20232;-86
2023/05/09 14:41:21;;;;;;;6.77;6.10;;;;;;;;;;5010816;28;20206;-82
2023/05/09 14:43:51;;;;;;;6.87;5.97;;;;;;;;;;5010903;28;20206;-86